Create Tblcommutelog Verified Points Advance Search
| # | Trip ID | Id Commuter | Trip Date | Trip Num | Current Lat | Current Lng | Delta Distance | Current Time | Activity | Activity Confidence | Current Speed | |
|---|---|---|---|---|---|---|---|---|---|---|---|---|
| 71681 | 251203_788500_16657138_1802 | 788500 | (not set) | (not set) | 38.933686095532 | -76.99530721424 | 0 | 2025-12-03 18:07:33 | on_foot | 100 | -0.44703925898772 | |
| 71682 | 251203_731669_16595792_1649 | 731669 | (not set) | (not set) | 38.774485230865 | -77.416338082871 | 28.411 | 2025-12-03 18:07:52 | in_vehicle | 100 | 7.5460226917128 | |
| 71683 | 251203_784414_16654419_1737 | 784414 | (not set) | (not set) | 38.805927485557 | -77.105232661496 | 10.1533 | 2025-12-03 18:07:55 | in_vehicle | 100 | 14.358900998686 | |
| 71684 | 251203_772683_16639975_1807 | 772683 | (not set) | (not set) | 38.9853243 | -76.9387043 | 0 | 2025-12-03 18:08:02 | still | 100 | 0.20563805913435 | |
| 71685 | 251203_784414_16654419_1737 | 784414 | (not set) | (not set) | 38.804506830854 | -77.109226563537 | 10.3901 | 2025-12-03 18:08:07 | in_vehicle | 100 | 14.336549035736 | |
| 71686 | 251203_789319_0_1713 | 789319 | (not set) | (not set) | 39.120581347489 | -77.16446807537 | 21.2637 | 2025-12-03 18:08:12 | on_foot | 100 | 0.3531610146003 | |
| 71687 | 251203_788397_16657014_1609 | 788397 | (not set) | (not set) | 39.270039914824 | -76.637953356028 | 33.0817 | 2025-12-03 18:08:19 | in_vehicle | 100 | 1.5959301545862 | |
| 71688 | 251203_784996_16653054_1757 | 784996 | (not set) | (not set) | 39.285085208048 | -76.604452718592 | 2.4209 | 2025-12-03 18:08:32 | still | 100 | 4.515096515776 | |
| 71689 | 251203_789307_16658135_1709 | 789307 | (not set) | (not set) | 39.105118063931 | -77.171308136033 | 22.7671 | 2025-12-03 18:08:42 | in_vehicle | 100 | 0 | |
| 71690 | 251203_782182_16649872_1754 | 782182 | (not set) | (not set) | 38.895858743511 | -77.059127847396 | 0.3283 | 2025-12-03 18:08:50 | unknown | 100 | -0.44703925898772 | |
| 71691 | 251203_785264_16653381_1755 | 785264 | (not set) | (not set) | 38.885312614132 | -77.097667779287 | 0 | 2025-12-03 18:09:00 | in_vehicle | 100 | -0.44703925898772 | |
| 71692 | 251203_781052_16648727_1702 | 781052 | (not set) | (not set) | 39.084269222275 | -77.145980138623 | 18.0958 | 2025-12-03 18:09:05 | in_vehicle | 100 | 0 | |
| 71693 | 251203_785323_16514073_1802 | 785323 | (not set) | (not set) | 39.3118035 | -76.657088 | 0.3159 | 2025-12-03 18:09:18 | still | 100 | 5.0649548043309 | |
| 71694 | 251203_784718_16652718_1704 | 784718 | (not set) | (not set) | 39.146469104583 | -77.418921825168 | 32.5003 | 2025-12-03 18:09:27 | in_vehicle | 100 | 4.9934285228929 | |
| 71695 | 251203_789307_16658135_1709 | 789307 | (not set) | (not set) | 39.1097249 | -77.173884 | 23.1199 | 2025-12-03 18:09:34 | in_vehicle | 100 | 4.8280239970674 | |
| 71696 | 251203_789139_16657932_1637 | 789139 | (not set) | (not set) | 38.8254225 | -77.0168644 | 8.3941 | 2025-12-03 17:29:59 | in_vehicle | 100 | 3.8355968421147 | |
| 71697 | 251203_789139_16657932_1637 | 789139 | (not set) | (not set) | 38.8142584 | -77.0200949 | 9.1929 | 2025-12-03 17:32:04 | in_vehicle | 100 | 5.1945961894374 | |
| 71698 | 251203_789139_16657932_1637 | 789139 | (not set) | (not set) | 38.7973228 | -77.0183125 | 10.4402 | 2025-12-03 17:34:24 | in_vehicle | 100 | 10.621652793548 | |
| 71699 | 251203_773849_16504560_0818 | 773849 | (not set) | (not set) | 38.975940516826 | -77.017750962708 | 19.5775 | 2025-12-03 18:04:00 | in_vehicle | 100 | 0 | |
| 71700 | 251203_789139_16657932_1637 | 789139 | (not set) | (not set) | 38.7897064 | -76.9985733 | 12.3133 | 2025-12-03 17:39:35 | in_vehicle | 100 | 3.6210179978006 |